Time;durP1;ratioP1;P1;durP2;ratioP2;P2;SDS_P1;SDS_P2;PMS_P1;PMS_P2;Temp;Humidity;BMP_temperature;BMP_pressure;BME280_temperature;BME280_humidity;BME280_pressure;Samples;Min_cycle;Max_cycle;Signal;HPM_P1;HPM_P2
2023/07/22 00:01:04;;;;;;;8.70;6.47;;;;;;;;;;4978110;28;20217;-60
2023/07/22 00:03:30;;;;;;;10.52;6.63;;;;;;;;;;4977615;28;20213;-59
2023/07/22 00:06:03;;;;;;;9.10;6.82;;;;;;;;;;4971382;28;20346;-59
2023/07/22 00:08:28;;;;;;;11.18;6.30;;;;;;;;;;4968935;28;20224;-59
2023/07/22 00:10:54;;;;;;;10.07;6.85;;;;;;;;;;4969825;28;20201;-59
2023/07/22 00:13:19;;;;;;;9.10;7.00;;;;;;;;;;4979266;28;20240;-60
2023/07/22 00:15:44;;;;;;;10.32;6.88;;;;;;;;;;4979996;28;20739;-59
2023/07/22 00:18:10;;;;;;;8.77;6.65;;;;;;;;;;4980543;28;20313;-59
2023/07/22 00:20:35;;;;;;;9.43;6.88;;;;;;;;;;4982025;28;20630;-59
2023/07/22 00:23:01;;;;;;;9.20;7.07;;;;;;;;;;4979432;28;20930;-60
2023/07/22 00:25:26;;;;;;;9.48;6.38;;;;;;;;;;4981667;28;20622;-59
2023/07/22 00:27:51;;;;;;;11.32;6.55;;;;;;;;;;4990332;28;20722;-59
2023/07/22 00:30:17;;;;;;;10.10;6.32;;;;;;;;;;4989427;28;20209;-59
2023/07/22 00:32:43;;;;;;;8.52;6.30;;;;;;;;;;4989699;28;20572;-60
2023/07/22 00:35:09;;;;;;;12.13;7.30;;;;;;;;;;4990578;28;20239;-59
2023/07/22 00:37:35;;;;;;;15.25;7.95;;;;;;;;;;4976283;28;20220;-59
2023/07/22 00:40:01;;;;;;;10.77;7.28;;;;;;;;;;4971767;28;20782;-59
2023/07/22 00:42:26;;;;;;;10.95;7.68;;;;;;;;;;4973673;28;20240;-59
2023/07/22 00:44:52;;;;;;;11.20;7.20;;;;;;;;;;4975661;28;20309;-59
2023/07/22 00:47:17;;;;;;;10.07;6.28;;;;;;;;;;4979977;28;20312;-59
2023/07/22 00:49:42;;;;;;;8.57;6.20;;;;;;;;;;4981336;28;20205;-59
2023/07/22 00:52:08;;;;;;;10.40;6.85;;;;;;;;;;4983181;28;20240;-59
2023/07/22 00:54:33;;;;;;;9.57;6.53;;;;;;;;;;4980867;28;20235;-59
2023/07/22 00:56:58;;;;;;;9.60;6.80;;;;;;;;;;4982149;28;20715;-59
2023/07/22 00:59:24;;;;;;;9.40;6.65;;;;;;;;;;4977626;28;20654;-59
2023/07/22 01:01:49;;;;;;;9.25;6.82;;;;;;;;;;4973656;28;20217;-59
2023/07/22 01:04:15;;;;;;;9.40;6.55;;;;;;;;;;4972664;28;20316;-59
2023/07/22 01:06:41;;;;;;;9.90;6.93;;;;;;;;;;4972461;28;20299;-60
2023/07/22 01:09:07;;;;;;;10.48;6.85;;;;;;;;;;4961703;28;20288;-60
2023/07/22 01:11:32;;;;;;;7.95;6.32;;;;;;;;;;4980982;28;20240;-59
2023/07/22 01:13:59;;;;;;;9.10;6.70;;;;;;;;;;4980252;28;20681;-59
2023/07/22 01:16:25;;;;;;;9.15;6.43;;;;;;;;;;4977931;28;20245;-59
2023/07/22 01:18:51;;;;;;;9.80;6.72;;;;;;;;;;4963450;28;20260;-59
2023/07/22 01:21:16;;;;;;;13.13;7.90;;;;;;;;;;4979787;28;20217;-59
2023/07/22 01:23:42;;;;;;;11.15;7.63;;;;;;;;;;4956364;28;20217;-59
2023/07/22 01:26:07;;;;;;;10.38;7.47;;;;;;;;;;4971731;28;20221;-59
2023/07/22 01:28:35;;;;;;;9.82;7.07;;;;;;;;;;4972306;28;20216;-59
2023/07/22 01:31:00;;;;;;;9.75;6.85;;;;;;;;;;4978130;28;20582;-59
2023/07/22 01:33:27;;;;;;;10.80;7.47;;;;;;;;;;4978819;28;20229;-59
2023/07/22 01:35:53;;;;;;;9.98;6.47;;;;;;;;;;4962308;28;20296;-59
2023/07/22 01:38:19;;;;;;;9.75;7.47;;;;;;;;;;4980041;28;20217;-59
2023/07/22 01:40:44;;;;;;;9.93;6.90;;;;;;;;;;4977474;28;20248;-59
2023/07/22 01:43:10;;;;;;;9.43;6.88;;;;;;;;;;4979751;28;20300;-59
2023/07/22 01:45:35;;;;;;;11.90;7.80;;;;;;;;;;4977106;28;20233;-59
2023/07/22 01:48:00;;;;;;;11.40;7.13;;;;;;;;;;4971673;28;20248;-59
2023/07/22 01:50:25;;;;;;;11.48;7.60;;;;;;;;;;4971025;28;20244;-60
2023/07/22 01:52:51;;;;;;;12.07;7.72;;;;;;;;;;4975559;28;20217;-59
2023/07/22 01:55:18;;;;;;;10.45;7.32;;;;;;;;;;4978771;28;20664;-59
2023/07/22 01:57:44;;;;;;;11.52;7.38;;;;;;;;;;4977875;28;20209;-59
2023/07/22 02:00:10;;;;;;;9.02;7.18;;;;;;;;;;4981854;28;20228;-59
2023/07/22 02:02:36;;;;;;;11.63;7.28;;;;;;;;;;4988664;28;20225;-59
2023/07/22 02:05:01;;;;;;;9.77;7.40;;;;;;;;;;4986801;28;20256;-60
2023/07/22 02:07:28;;;;;;;9.40;7.30;;;;;;;;;;4988876;28;20300;-59
2023/07/22 02:09:54;;;;;;;10.38;7.25;;;;;;;;;;4988642;28;20217;-59
2023/07/22 02:12:19;;;;;;;10.90;7.63;;;;;;;;;;4990001;28;20217;-59
2023/07/22 02:14:44;;;;;;;11.90;7.70;;;;;;;;;;4991556;28;20243;-59
2023/07/22 02:17:10;;;;;;;10.50;7.80;;;;;;;;;;4986479;28;20259;-60
2023/07/22 02:19:36;;;;;;;14.38;7.45;;;;;;;;;;4980228;28;20223;-59
2023/07/22 02:22:02;;;;;;;11.25;7.78;;;;;;;;;;4979061;28;20205;-60
2023/07/22 02:24:28;;;;;;;11.88;7.55;;;;;;;;;;4977899;28;20225;-59
2023/07/22 02:26:53;;;;;;;10.57;8.07;;;;;;;;;;4974616;28;20221;-59
2023/07/22 02:29:19;;;;;;;13.63;8.27;;;;;;;;;;4971464;28;20240;-59
2023/07/22 02:31:46;;;;;;;12.10;8.52;;;;;;;;;;4970661;28;20271;-59
2023/07/22 02:34:11;;;;;;;11.50;7.75;;;;;;;;;;4973308;28;20236;-59
2023/07/22 02:36:37;;;;;;;12.63;8.48;;;;;;;;;;4979333;28;20221;-59
2023/07/22 02:39:03;;;;;;;11.60;8.35;;;;;;;;;;4978490;28;20236;-59
2023/07/22 02:41:28;;;;;;;12.32;8.85;;;;;;;;;;4977591;28;20783;-59
2023/07/22 02:43:53;;;;;;;12.02;8.80;;;;;;;;;;4978489;28;20217;-59
2023/07/22 02:46:19;;;;;;;12.23;9.18;;;;;;;;;;4978431;28;20309;-59
2023/07/22 02:48:44;;;;;;;12.13;8.68;;;;;;;;;;4976511;28;20324;-59
2023/07/22 02:51:10;;;;;;;14.30;8.95;;;;;;;;;;4969725;28;20692;-59
2023/07/22 02:53:37;;;;;;;13.15;9.02;;;;;;;;;;4970985;28;20251;-59
2023/07/22 02:56:02;;;;;;;13.30;9.25;;;;;;;;;;4972654;28;20262;-59
2023/07/22 02:58:27;;;;;;;12.80;9.18;;;;;;;;;;4976454;28;20301;-59
2023/07/22 03:00:53;;;;;;;14.55;10.18;;;;;;;;;;4978664;28;20202;-59
2023/07/22 03:03:18;;;;;;;14.40;9.60;;;;;;;;;;4978476;28;20307;-59
2023/07/22 03:05:44;;;;;;;13.73;9.77;;;;;;;;;;4976841;28;20205;-59
2023/07/22 03:08:09;;;;;;;14.38;9.98;;;;;;;;;;4977772;28;20231;-59
2023/07/22 03:10:34;;;;;;;15.10;10.18;;;;;;;;;;4978440;28;20588;-59
2023/07/22 03:13:03;;;;;;;14.27;10.15;;;;;;;;;;4970590;28;20220;-59
2023/07/22 03:15:28;;;;;;;16.25;10.20;;;;;;;;;;4969769;28;20217;-59
2023/07/22 03:17:55;;;;;;;14.13;9.88;;;;;;;;;;4971094;28;20276;-59
2023/07/22 03:20:21;;;;;;;14.10;9.80;;;;;;;;;;4977327;28;20646;-60
2023/07/22 03:22:47;;;;;;;16.40;10.70;;;;;;;;;;4976859;28;20634;-59
2023/07/22 03:25:13;;;;;;;13.90;10.05;;;;;;;;;;4977990;28;20209;-59
2023/07/22 03:27:38;;;;;;;16.55;10.77;;;;;;;;;;4960586;28;20602;-59
2023/07/22 03:30:06;;;;;;;16.88;10.80;;;;;;;;;;4977480;28;20211;-60
2023/07/22 03:32:32;;;;;;;14.55;10.98;;;;;;;;;;4977337;28;20264;-59
2023/07/22 03:34:57;;;;;;;14.32;10.85;;;;;;;;;;4973768;28;20315;-60
2023/07/22 03:37:22;;;;;;;16.27;11.57;;;;;;;;;;4970173;28;20208;-60
2023/07/22 03:39:48;;;;;;;14.90;10.95;;;;;;;;;;4970486;28;20216;-59
2023/07/22 03:42:13;;;;;;;16.50;11.15;;;;;;;;;;4977293;28;20344;-59
2023/07/22 03:44:40;;;;;;;16.75;11.68;;;;;;;;;;4977543;28;20209;-59
2023/07/22 03:47:05;;;;;;;19.70;12.80;;;;;;;;;;4980238;28;20621;-59
2023/07/22 03:49:31;;;;;;;17.27;11.70;;;;;;;;;;4981541;28;20688;-59
2023/07/22 03:51:56;;;;;;;17.67;11.63;;;;;;;;;;4980683;28;20219;-59
2023/07/22 03:54:21;;;;;;;16.00;12.05;;;;;;;;;;4980388;28;21210;-59
2023/07/22 03:56:47;;;;;;;18.00;11.68;;;;;;;;;;4980863;28;20320;-59
2023/07/22 03:59:12;;;;;;;16.67;11.43;;;;;;;;;;4972229;28;20212;-59
2023/07/22 04:01:37;;;;;;;19.88;12.27;;;;;;;;;;4973953;28;20220;-59
2023/07/22 04:04:03;;;;;;;15.52;11.00;;;;;;;;;;4976087;28;20219;-60
2023/07/22 04:06:28;;;;;;;17.25;11.40;;;;;;;;;;4981430;28;20248;-59
2023/07/22 04:08:53;;;;;;;17.20;12.48;;;;;;;;;;4980207;28;20328;-59
2023/07/22 04:11:19;;;;;;;17.58;11.57;;;;;;;;;;4981739;28;20368;-59
2023/07/22 04:13:44;;;;;;;19.35;12.23;;;;;;;;;;4981389;28;20229;-59
2023/07/22 04:16:09;;;;;;;18.13;12.65;;;;;;;;;;4979527;28;20695;-59
2023/07/22 04:18:35;;;;;;;19.85;12.30;;;;;;;;;;4982136;28;20221;-59
2023/07/22 04:21:00;;;;;;;17.92;12.77;;;;;;;;;;4975180;28;20275;-59
2023/07/22 04:23:26;;;;;;;19.25;12.77;;;;;;;;;;4974839;28;20275;-59
2023/07/22 04:25:51;;;;;;;18.38;12.20;;;;;;;;;;4977636;28;20308;-59
2023/07/22 04:28:16;;;;;;;21.50;13.13;;;;;;;;;;4983786;28;20672;-59
2023/07/22 04:30:41;;;;;;;19.90;13.77;;;;;;;;;;4983520;28;20583;-59
2023/07/22 04:33:10;;;;;;;20.55;14.05;;;;;;;;;;4983902;28;20296;-59
2023/07/22 04:35:38;;;;;;;21.42;13.52;;;;;;;;;;4984545;28;20224;-59
2023/07/22 04:38:04;;;;;;;19.20;13.45;;;;;;;;;;4965475;28;20224;-59
2023/07/22 04:40:30;;;;;;;19.58;13.73;;;;;;;;;;4984395;28;20225;-59
2023/07/22 04:42:56;;;;;;;17.65;12.77;;;;;;;;;;4979646;28;20205;-59
2023/07/22 04:45:23;;;;;;;20.20;12.77;;;;;;;;;;4974851;28;20244;-59
2023/07/22 04:47:49;;;;;;;19.63;12.63;;;;;;;;;;4976983;28;20301;-59
2023/07/22 04:50:14;;;;;;;18.17;12.20;;;;;;;;;;4980380;28;20333;-59
2023/07/22 04:52:41;;;;;;;18.73;13.27;;;;;;;;;;4983539;28;20224;-59
2023/07/22 04:55:10;;;;;;;17.88;12.55;;;;;;;;;;4983633;28;20225;-59
2023/07/22 04:57:35;;;;;;;19.05;13.35;;;;;;;;;;4982535;28;20205;-59
2023/07/22 05:00:03;;;;;;;21.58;14.02;;;;;;;;;;4983347;28;20596;-60
2023/07/22 05:02:30;;;;;;;18.83;13.10;;;;;;;;;;4983856;28;20217;-59
2023/07/22 05:04:55;;;;;;;19.33;12.90;;;;;;;;;;4980272;28;20263;-59
2023/07/22 05:07:21;;;;;;;22.48;14.32;;;;;;;;;;4976304;28;20288;-59
2023/07/22 05:09:46;;;;;;;21.05;13.50;;;;;;;;;;4976154;28;20632;-59
2023/07/22 05:12:12;;;;;;;22.55;14.85;;;;;;;;;;4977124;28;20221;-59
2023/07/22 05:14:37;;;;;;;23.38;15.02;;;;;;;;;;4983550;28;20233;-59
2023/07/22 05:17:02;;;;;;;25.25;15.80;;;;;;;;;;4983133;28;20263;-60
2023/07/22 05:19:28;;;;;;;24.13;16.52;;;;;;;;;;4982940;28;20275;-60
2023/07/22 05:21:53;;;;;;;24.60;16.40;;;;;;;;;;4983496;28;20225;-59
2023/07/22 05:24:20;;;;;;;26.37;17.77;;;;;;;;;;4982133;28;20437;-60
2023/07/22 05:26:46;;;;;;;25.52;16.55;;;;;;;;;;4982268;28;20990;-60
2023/07/22 05:29:11;;;;;;;28.13;16.73;;;;;;;;;;4975566;28;20363;-60
2023/07/22 05:31:36;;;;;;;27.57;18.30;;;;;;;;;;4975642;28;20455;-60
2023/07/22 05:34:03;;;;;;;27.23;16.88;;;;;;;;;;4974519;28;20233;-60
2023/07/22 05:36:29;;;;;;;31.20;17.13;;;;;;;;;;4982849;28;20221;-60
2023/07/22 05:38:54;;;;;;;28.23;17.80;;;;;;;;;;4983568;28;20210;-60
2023/07/22 05:41:19;;;;;;;28.48;17.60;;;;;;;;;;4982146;28;20328;-60
2023/07/22 05:43:45;;;;;;;28.05;18.08;;;;;;;;;;4982821;28;20224;-60
2023/07/22 05:46:10;;;;;;;26.95;17.77;;;;;;;;;;4982852;28;20834;-60
2023/07/22 05:48:35;;;;;;;27.60;17.27;;;;;;;;;;4982497;28;20212;-59
2023/07/22 05:51:01;;;;;;;29.50;19.77;;;;;;;;;;4976282;28;20491;-60
2023/07/22 05:53:26;;;;;;;28.40;18.35;;;;;;;;;;4974846;28;20224;-60
2023/07/22 05:55:51;;;;;;;26.98;17.52;;;;;;;;;;4974371;28;20214;-61
2023/07/22 05:58:17;;;;;;;28.30;19.00;;;;;;;;;;4980505;28;20570;-60
2023/07/22 06:00:43;;;;;;;27.95;19.13;;;;;;;;;;4983108;28;20225;-60
2023/07/22 06:03:08;;;;;;;26.00;18.88;;;;;;;;;;4977971;28;20213;-61
2023/07/22 06:05:34;;;;;;;25.70;18.65;;;;;;;;;;4980137;28;20209;-61
2023/07/22 06:07:59;;;;;;;29.10;19.65;;;;;;;;;;4978521;28;20217;-60
2023/07/22 06:10:25;;;;;;;25.50;17.63;;;;;;;;;;4976144;28;20833;-60
2023/07/22 06:12:50;;;;;;;32.80;19.38;;;;;;;;;;4977338;28;20499;-61
2023/07/22 06:15:15;;;;;;;32.03;19.33;;;;;;;;;;4970455;28;20225;-60
2023/07/22 06:17:41;;;;;;;28.50;19.05;;;;;;;;;;4971961;28;20311;-60
2023/07/22 06:20:06;;;;;;;27.75;18.48;;;;;;;;;;4987330;28;20213;-60
2023/07/22 06:22:32;;;;;;;30.02;18.42;;;;;;;;;;4988976;28;20241;-60
2023/07/22 06:24:57;;;;;;;34.83;19.17;;;;;;;;;;4988237;28;20268;-60
2023/07/22 06:27:22;;;;;;;27.48;19.33;;;;;;;;;;4987485;28;20236;-60
2023/07/22 06:29:48;;;;;;;30.10;20.17;;;;;;;;;;4990260;28;20245;-60
2023/07/22 06:32:13;;;;;;;32.13;20.77;;;;;;;;;;4990960;28;20476;-59
2023/07/22 06:34:38;;;;;;;27.33;19.48;;;;;;;;;;4991824;28;20337;-61
2023/07/22 06:37:04;;;;;;;27.13;19.50;;;;;;;;;;4990660;28;20220;-61
2023/07/22 06:39:29;;;;;;;27.38;18.80;;;;;;;;;;4991663;28;20248;-61
2023/07/22 06:41:55;;;;;;;27.40;18.80;;;;;;;;;;4991486;28;20209;-61
2023/07/22 06:44:21;;;;;;;25.50;18.13;;;;;;;;;;4989897;28;20241;-61
2023/07/22 06:46:46;;;;;;;28.73;19.88;;;;;;;;;;4991679;28;20303;-60
2023/07/22 06:49:12;;;;;;;28.48;18.52;;;;;;;;;;4991246;28;20620;-60
2023/07/22 06:51:37;;;;;;;30.70;19.77;;;;;;;;;;4991057;28;20300;-60
2023/07/22 06:54:02;;;;;;;28.30;19.00;;;;;;;;;;4991273;28;20247;-61
2023/07/22 06:56:28;;;;;;;27.27;17.88;;;;;;;;;;4991788;28;20225;-60
2023/07/22 06:58:53;;;;;;;26.15;18.63;;;;;;;;;;4990813;28;20237;-60
2023/07/22 07:01:18;;;;;;;27.65;19.23;;;;;;;;;;4991150;28;20221;-61
2023/07/22 07:03:44;;;;;;;29.20;18.48;;;;;;;;;;4991447;28;20209;-61
2023/07/22 07:06:09;;;;;;;26.42;18.08;;;;;;;;;;4990366;28;20217;-60
2023/07/22 07:08:34;;;;;;;27.52;18.50;;;;;;;;;;4985405;28;20205;-61
2023/07/22 07:11:01;;;;;;;29.27;18.63;;;;;;;;;;4991333;28;20221;-61
2023/07/22 07:13:26;;;;;;;24.33;17.08;;;;;;;;;;4989842;28;20229;-60
2023/07/22 07:15:51;;;;;;;24.15;17.30;;;;;;;;;;4990782;28;20211;-60
2023/07/22 07:18:17;;;;;;;25.90;17.58;;;;;;;;;;4987824;28;20275;-61
2023/07/22 07:20:43;;;;;;;26.77;16.95;;;;;;;;;;4982455;28;20292;-60
2023/07/22 07:23:08;;;;;;;23.35;16.90;;;;;;;;;;4988676;28;20240;-60
2023/07/22 07:25:33;;;;;;;27.58;17.05;;;;;;;;;;4990514;28;20245;-60
2023/07/22 07:27:59;;;;;;;27.55;16.42;;;;;;;;;;4991029;28;20307;-60
2023/07/22 07:30:24;;;;;;;25.13;16.55;;;;;;;;;;4990229;28;20289;-60
2023/07/22 07:32:50;;;;;;;26.42;16.90;;;;;;;;;;4990461;28;20217;-60
2023/07/22 07:35:15;;;;;;;27.98;16.55;;;;;;;;;;4990651;28;20240;-61
2023/07/22 07:37:40;;;;;;;21.17;14.75;;;;;;;;;;4991267;28;20247;-61
2023/07/22 07:40:06;;;;;;;21.88;14.38;;;;;;;;;;4989875;28;20209;-61
2023/07/22 07:42:31;;;;;;;23.27;14.55;;;;;;;;;;4990833;28;20224;-60
2023/07/22 07:44:57;;;;;;;23.08;15.82;;;;;;;;;;4990609;28;20266;-61
2023/07/22 07:47:22;;;;;;;22.38;15.05;;;;;;;;;;4989901;28;20301;-61
2023/07/22 07:49:47;;;;;;;22.80;15.43;;;;;;;;;;4991260;28;20221;-61
2023/07/22 07:52:13;;;;;;;26.42;14.77;;;;;;;;;;4990662;28;20217;-61
2023/07/22 07:54:38;;;;;;;21.52;15.07;;;;;;;;;;4990128;28;20240;-61
2023/07/22 07:57:04;;;;;;;20.80;12.98;;;;;;;;;;4989343;28;20220;-61
2023/07/22 07:59:29;;;;;;;23.60;13.70;;;;;;;;;;4989051;28;20638;-61
2023/07/22 08:01:54;;;;;;;23.38;13.95;;;;;;;;;;4990336;28;20213;-61
2023/07/22 08:04:19;;;;;;;28.88;13.65;;;;;;;;;;4990289;28;20275;-61
2023/07/22 08:06:45;;;;;;;19.48;12.98;;;;;;;;;;4991134;28;20217;-61
2023/07/22 08:09:10;;;;;;;18.42;12.60;;;;;;;;;;4989885;28;20224;-61
2023/07/22 08:11:36;;;;;;;20.05;12.85;;;;;;;;;;4991541;28;20296;-61
2023/07/22 08:14:01;;;;;;;18.88;12.05;;;;;;;;;;4985182;28;20344;-61
2023/07/22 08:16:27;;;;;;;16.90;11.52;;;;;;;;;;4987861;28;20213;-61
2023/07/22 08:18:53;;;;;;;19.83;12.90;;;;;;;;;;4987112;28;20217;-60
2023/07/22 08:21:19;;;;;;;16.67;11.73;;;;;;;;;;4985210;28;20289;-61
2023/07/22 08:23:46;;;;;;;17.65;11.43;;;;;;;;;;4986560;28;20694;-61
2023/07/22 08:26:12;;;;;;;17.00;11.23;;;;;;;;;;4987284;28;20213;-61
2023/07/22 08:28:37;;;;;;;18.73;11.77;;;;;;;;;;4983454;28;20236;-61
2023/07/22 08:31:02;;;;;;;15.13;10.10;;;;;;;;;;4986088;28;20213;-62
2023/07/22 08:33:28;;;;;;;16.08;10.70;;;;;;;;;;4989508;28;20220;-61
2023/07/22 08:35:53;;;;;;;14.32;8.85;;;;;;;;;;4989890;28;20217;-61
2023/07/22 08:38:18;;;;;;;14.10;8.30;;;;;;;;;;4989352;28;20220;-61
2023/07/22 08:40:44;;;;;;;14.45;8.70;;;;;;;;;;4991296;28;20217;-60
2023/07/22 08:43:10;;;;;;;15.70;9.13;;;;;;;;;;4989734;28;20216;-61
2023/07/22 08:45:36;;;;;;;15.50;9.40;;;;;;;;;;4987953;28;20227;-61
2023/07/22 08:48:09;;;;;;;14.75;8.90;;;;;;;;;;4990811;28;20316;-61
2023/07/22 08:50:35;;;;;;;15.70;8.63;;;;;;;;;;4973771;28;20576;-61
2023/07/22 08:53:00;;;;;;;15.48;9.00;;;;;;;;;;4994326;28;20235;-61
2023/07/22 08:55:25;;;;;;;13.95;9.15;;;;;;;;;;4993608;28;20565;-61
2023/07/22 08:57:51;;;;;;;14.32;9.13;;;;;;;;;;4975640;28;20213;-61
2023/07/22 09:00:16;;;;;;;16.13;9.40;;;;;;;;;;4975305;28;20213;-61
2023/07/22 09:02:42;;;;;;;13.25;9.02;;;;;;;;;;4991438;28;20228;-61
2023/07/22 09:05:09;;;;;;;15.02;9.88;;;;;;;;;;4992432;28;20751;-61
2023/07/22 09:07:34;;;;;;;17.75;9.80;;;;;;;;;;4993668;28;20244;-61
2023/07/22 09:09:59;;;;;;;18.02;10.20;;;;;;;;;;4993518;28;20275;-62
2023/07/22 09:12:25;;;;;;;20.40;10.60;;;;;;;;;;4974846;28;20205;-61
2023/07/22 09:14:50;;;;;;;18.38;10.20;;;;;;;;;;4992782;28;20221;-61
2023/07/22 09:17:15;;;;;;;15.50;10.30;;;;;;;;;;4992680;28;20268;-61
2023/07/22 09:19:41;;;;;;;20.00;10.93;;;;;;;;;;4990518;28;20247;-62
2023/07/22 09:22:07;;;;;;;16.85;11.23;;;;;;;;;;4992782;28;20569;-61
2023/07/22 09:24:32;;;;;;;15.00;10.48;;;;;;;;;;4991084;28;20213;-62
2023/07/22 09:26:58;;;;;;;17.20;10.57;;;;;;;;;;4991692;28;20209;-62
2023/07/22 09:29:34;;;;;;;16.08;10.50;;;;;;;;;;4991801;28;20600;-62
2023/07/22 09:31:59;;;;;;;15.93;10.80;;;;;;;;;;4992160;28;20326;-62
2023/07/22 09:34:25;;;;;;;16.38;10.00;;;;;;;;;;4992218;28;20668;-61
2023/07/22 09:36:52;;;;;;;13.90;9.07;;;;;;;;;;4992539;28;20225;-62
2023/07/22 09:39:18;;;;;;;14.77;8.30;;;;;;;;;;4990524;28;20223;-62
2023/07/22 09:41:43;;;;;;;12.80;8.18;;;;;;;;;;4992061;28;20731;-62
2023/07/22 09:44:10;;;;;;;14.07;7.47;;;;;;;;;;4974591;28;20243;-62
2023/07/22 09:46:35;;;;;;;12.27;7.10;;;;;;;;;;4992159;28;20251;-62
2023/07/22 09:49:02;;;;;;;14.25;7.38;;;;;;;;;;4992773;28;20589;-62
2023/07/22 09:51:32;;;;;;;11.10;6.63;;;;;;;;;;4993091;28;20681;-62
2023/07/22 09:54:00;;;;;;;13.95;7.18;;;;;;;;;;4974876;28;20233;-62
2023/07/22 09:56:26;;;;;;;12.07;6.93;;;;;;;;;;4992725;28;20209;-62
2023/07/22 09:58:51;;;;;;;13.25;6.25;;;;;;;;;;4992749;28;20224;-62
2023/07/22 10:01:16;;;;;;;10.23;5.75;;;;;;;;;;4991963;28;20221;-62
2023/07/22 10:03:42;;;;;;;9.40;5.50;;;;;;;;;;4975303;28;20221;-62
2023/07/22 10:06:08;;;;;;;9.95;5.57;;;;;;;;;;4992357;28;20205;-62
2023/07/22 10:08:34;;;;;;;11.73;5.75;;;;;;;;;;4990380;28;20632;-62
2023/07/22 10:10:59;;;;;;;10.82;5.55;;;;;;;;;;4992777;28;20213;-62
2023/07/22 10:13:24;;;;;;;10.07;5.20;;;;;;;;;;4974550;28;20337;-62
2023/07/22 10:15:50;;;;;;;12.05;5.90;;;;;;;;;;4974432;28;20699;-61
2023/07/22 10:18:16;;;;;;;10.38;5.80;;;;;;;;;;4992164;28;20209;-62
2023/07/22 10:20:41;;;;;;;10.38;5.32;;;;;;;;;;4992899;28;20229;-62
2023/07/22 10:23:08;;;;;;;11.65;5.30;;;;;;;;;;4991363;28;20240;-62
2023/07/22 10:25:33;;;;;;;10.82;4.68;;;;;;;;;;4992352;28;20287;-62
2023/07/22 10:27:58;;;;;;;8.05;4.82;;;;;;;;;;4992553;28;20669;-62
2023/07/22 10:30:24;;;;;;;11.02;4.80;;;;;;;;;;4990432;28;20213;-62
2023/07/22 10:32:51;;;;;;;9.32;4.70;;;;;;;;;;4987671;28;20212;-62
2023/07/22 10:35:21;;;;;;;9.80;4.90;;;;;;;;;;4970604;28;20308;-62
2023/07/22 10:37:47;;;;;;;11.13;5.03;;;;;;;;;;4981240;28;20224;-62
2023/07/22 10:40:19;;;;;;;9.15;4.80;;;;;;;;;;4967598;28;20300;-62
2023/07/22 10:42:52;;;;;;;10.75;5.50;;;;;;;;;;4984067;28;20213;-62
2023/07/22 10:45:24;;;;;;;8.48;5.57;;;;;;;;;;4988246;28;20970;-62
2023/07/22 10:47:59;;;;;;;11.63;6.15;;;;;;;;;;4989221;28;20233;-62
2023/07/22 10:50:26;;;;;;;10.48;5.82;;;;;;;;;;4986746;28;20216;-62
2023/07/22 10:52:51;;;;;;;11.45;5.75;;;;;;;;;;4970578;28;20217;-62
2023/07/22 10:55:17;;;;;;;10.15;5.43;;;;;;;;;;4988415;28;20271;-62
2023/07/22 10:57:49;;;;;;;10.10;5.38;;;;;;;;;;4988134;28;20236;-62
2023/07/22 11:00:21;;;;;;;8.70;5.00;;;;;;;;;;4986248;28;20727;-62
2023/07/22 11:02:48;;;;;;;10.60;6.00;;;;;;;;;;4988998;28;20981;-62
2023/07/22 11:05:13;;;;;;;9.05;5.00;;;;;;;;;;4985546;28;20739;-62
2023/07/22 11:07:42;;;;;;;7.68;4.55;;;;;;;;;;4970658;28;20231;-62
2023/07/22 11:10:14;;;;;;;7.32;4.15;;;;;;;;;;4991757;28;20283;-62
2023/07/22 11:12:40;;;;;;;8.77;4.50;;;;;;;;;;4986632;28;20336;-62
2023/07/22 11:15:05;;;;;;;8.90;4.65;;;;;;;;;;4988715;28;20319;-62
2023/07/22 11:17:31;;;;;;;9.90;4.68;;;;;;;;;;4987278;28;20221;-62
2023/07/22 11:19:57;;;;;;;8.63;4.28;;;;;;;;;;4986958;28;20220;-62
2023/07/22 11:22:22;;;;;;;8.57;4.28;;;;;;;;;;4987942;28;20228;-62
2023/07/22 11:24:48;;;;;;;10.75;4.18;;;;;;;;;;4988022;28;20475;-62
2023/07/22 11:27:13;;;;;;;8.05;4.38;;;;;;;;;;4986445;28;20217;-62
2023/07/22 11:29:38;;;;;;;8.60;3.97;;;;;;;;;;4988757;28;20596;-62
2023/07/22 11:32:04;;;;;;;7.90;4.18;;;;;;;;;;4969523;28;20728;-62
2023/07/22 11:34:29;;;;;;;7.38;4.15;;;;;;;;;;4987417;28;20228;-62
2023/07/22 11:36:55;;;;;;;9.48;4.50;;;;;;;;;;4987785;28;20961;-62
2023/07/22 11:39:21;;;;;;;10.93;4.70;;;;;;;;;;4987720;28;20337;-62
2023/07/22 11:41:47;;;;;;;10.25;4.18;;;;;;;;;;4988598;28;20217;-62
2023/07/22 11:44:14;;;;;;;6.45;3.67;;;;;;;;;;4986041;28;20216;-62
2023/07/22 11:46:47;;;;;;;9.52;4.38;;;;;;;;;;4987426;28;20240;-62
2023/07/22 11:49:12;;;;;;;9.13;3.70;;;;;;;;;;4988036;28;20582;-62
2023/07/22 11:51:37;;;;;;;9.38;4.05;;;;;;;;;;4987116;28;20205;-62
2023/07/22 11:54:03;;;;;;;10.13;4.50;;;;;;;;;;4969352;28;20229;-62
2023/07/22 11:56:28;;;;;;;6.15;4.00;;;;;;;;;;4988600;28;20267;-62
2023/07/22 11:58:55;;;;;;;8.25;4.30;;;;;;;;;;4988038;28;20688;-62
2023/07/22 12:01:20;;;;;;;10.02;4.20;;;;;;;;;;4985432;28;20263;-62
2023/07/22 12:03:45;;;;;;;10.25;4.72;;;;;;;;;;4988730;28;20210;-62
2023/07/22 12:06:11;;;;;;;8.68;3.97;;;;;;;;;;4987993;28;20243;-62
2023/07/22 12:08:37;;;;;;;6.90;4.05;;;;;;;;;;4988051;28;20209;-62
2023/07/22 12:11:03;;;;;;;8.38;4.05;;;;;;;;;;4991833;28;20680;-62
2023/07/22 12:13:29;;;;;;;8.45;3.13;;;;;;;;;;4991753;28;20262;-62
2023/07/22 12:15:59;;;;;;;9.10;4.07;;;;;;;;;;4989806;28;20248;-62
2023/07/22 12:18:24;;;;;;;8.02;3.40;;;;;;;;;;4989880;28;20290;-63
2023/07/22 12:20:50;;;;;;;6.53;3.15;;;;;;;;;;4990424;28;20612;-64
2023/07/22 12:23:15;;;;;;;10.48;3.53;;;;;;;;;;4991266;28;20259;-61
2023/07/22 12:25:40;;;;;;;7.22;3.47;;;;;;;;;;4989880;28;20209;-61
2023/07/22 12:28:07;;;;;;;6.75;2.92;;;;;;;;;;4981267;28;20275;-62
2023/07/22 12:30:33;;;;;;;7.85;3.20;;;;;;;;;;4993863;28;20221;-61
2023/07/22 12:32:58;;;;;;;8.23;3.10;;;;;;;;;;4978308;28;20209;-61
2023/07/22 12:35:23;;;;;;;9.10;3.40;;;;;;;;;;4994317;28;20370;-61
2023/07/22 12:37:49;;;;;;;8.45;3.03;;;;;;;;;;4994811;28;20296;-61
2023/07/22 12:40:14;;;;;;;9.98;3.30;;;;;;;;;;4994141;28;20573;-61
2023/07/22 12:42:40;;;;;;;5.35;2.72;;;;;;;;;;4993456;28;20578;-61
2023/07/22 12:45:05;;;;;;;7.38;2.58;;;;;;;;;;4994042;28;20241;-60
2023/07/22 12:47:31;;;;;;;5.10;2.50;;;;;;;;;;4994338;28;20233;-60
2023/07/22 12:49:56;;;;;;;5.15;2.10;;;;;;;;;;4993585;28;20762;-61
2023/07/22 12:52:21;;;;;;;8.20;2.45;;;;;;;;;;4993703;28;20229;-61
2023/07/22 12:54:47;;;;;;;7.30;2.40;;;;;;;;;;4994417;28;20778;-61
2023/07/22 12:57:12;;;;;;;8.63;2.47;;;;;;;;;;4992907;28;20563;-61
2023/07/22 12:59:37;;;;;;;5.15;2.00;;;;;;;;;;4994261;28;20624;-61
2023/07/22 13:02:03;;;;;;;7.28;2.20;;;;;;;;;;4993729;28;20660;-61
2023/07/22 13:04:28;;;;;;;6.65;2.72;;;;;;;;;;4993364;28;20217;-61
2023/07/22 13:06:53;;;;;;;5.63;2.80;;;;;;;;;;4994081;28;20213;-61
2023/07/22 13:09:19;;;;;;;5.45;2.55;;;;;;;;;;4993777;28;20217;-61
2023/07/22 13:11:45;;;;;;;6.80;2.90;;;;;;;;;;4992963;28;20209;-61
2023/07/22 13:14:10;;;;;;;4.85;2.53;;;;;;;;;;4993091;28;20287;-61
2023/07/22 13:16:35;;;;;;;9.48;2.80;;;;;;;;;;4990125;28;20213;-60
2023/07/22 13:19:02;;;;;;;7.18;3.00;;;;;;;;;;4978344;28;20213;-61
2023/07/22 13:21:28;;;;;;;6.53;3.15;;;;;;;;;;4980337;28;20573;-60
2023/07/22 13:23:53;;;;;;;5.72;2.88;;;;;;;;;;4980492;28;20217;-61
2023/07/22 13:26:19;;;;;;;7.78;3.33;;;;;;;;;;4981708;28;20221;-61
2023/07/22 13:28:44;;;;;;;6.95;2.95;;;;;;;;;;4987544;28;20221;-61
2023/07/22 13:31:09;;;;;;;5.80;3.10;;;;;;;;;;4986784;28;20228;-60
2023/07/22 13:33:35;;;;;;;7.18;3.28;;;;;;;;;;4987981;28;20228;-61
2023/07/22 13:36:00;;;;;;;6.68;2.95;;;;;;;;;;4987359;28;20552;-62
2023/07/22 13:38:26;;;;;;;6.88;3.08;;;;;;;;;;4987108;28;20213;-61
2023/07/22 13:40:51;;;;;;;7.78;3.10;;;;;;;;;;4965446;28;20350;-61
2023/07/22 13:43:16;;;;;;;7.45;3.20;;;;;;;;;;4979432;28;20201;-60
2023/07/22 13:45:42;;;;;;;7.32;3.10;;;;;;;;;;4979327;28;20283;-60
2023/07/22 13:48:07;;;;;;;7.47;3.25;;;;;;;;;;4982741;28;20213;-61
2023/07/22 13:50:32;;;;;;;10.23;2.92;;;;;;;;;;4969069;28;20223;-61
2023/07/22 13:52:58;;;;;;;6.72;2.60;;;;;;;;;;4986638;28;20229;-61
2023/07/22 13:55:23;;;;;;;8.63;2.97;;;;;;;;;;4986625;28;20229;-61
2023/07/22 13:57:48;;;;;;;7.18;2.95;;;;;;;;;;4983587;28;20292;-61
2023/07/22 14:00:14;;;;;;;8.50;2.97;;;;;;;;;;4983441;28;20221;-61
2023/07/22 14:02:39;;;;;;;5.72;2.88;;;;;;;;;;4982741;28;20715;-62
2023/07/22 14:05:05;;;;;;;5.57;2.72;;;;;;;;;;4974599;28;20329;-62
2023/07/22 14:07:31;;;;;;;12.60;2.90;;;;;;;;;;4975731;28;20240;-61
2023/07/22 14:09:56;;;;;;;9.15;3.30;;;;;;;;;;4977005;28;20376;-61
2023/07/22 14:12:21;;;;;;;7.07;2.85;;;;;;;;;;4980690;28;20233;-61
2023/07/22 14:14:46;;;;;;;5.00;3.10;;;;;;;;;;4984061;28;20213;-61
2023/07/22 14:17:12;;;;;;;8.70;3.40;;;;;;;;;;4986716;28;20776;-60
2023/07/22 14:19:37;;;;;;;8.35;3.30;;;;;;;;;;4984129;28;20240;-62